createdAt,value
2018-12-13T00:00:04.150Z,8.20
2018-12-13T00:05:07.606Z,8.30
2018-12-13T00:10:10.870Z,8.20
2018-12-13T00:15:14.174Z,8.40
2018-12-13T00:20:17.374Z,8.40
2018-12-13T00:25:20.574Z,8.20
2018-12-13T00:30:23.898Z,8.20
2018-12-13T00:35:27.110Z,8.40
2018-12-13T00:40:30.317Z,8.40
2018-12-13T00:45:33.523Z,8.30
2018-12-13T00:50:36.744Z,8.50
2018-12-13T00:55:39.982Z,8.30
2018-12-13T01:00:43.199Z,8.10
2018-12-13T01:05:46.419Z,8.10
2018-12-13T01:10:49.717Z,8.40
2018-12-13T01:15:52.931Z,8.30
2018-12-13T01:20:56.175Z,8.30
2018-12-13T01:25:59.407Z,7.90
2018-12-13T01:31:02.686Z,7.90
2018-12-13T01:36:05.907Z,8.00
2018-12-13T01:41:09.120Z,8.10
2018-12-13T01:46:12.438Z,8.00
2018-12-13T01:51:15.726Z,8.10
2018-12-13T01:56:18.937Z,8.00
2018-12-13T02:01:22.106Z,8.00
2018-12-13T02:06:25.309Z,8.00
2018-12-13T02:11:28.510Z,7.90
2018-12-13T02:16:31.926Z,8.20
2018-12-13T02:21:35.135Z,8.10
2018-12-13T02:26:38.386Z,7.80
2018-12-13T02:31:41.642Z,8.10
2018-12-13T02:36:45.029Z,8.00
2018-12-13T02:41:48.289Z,7.90
2018-12-13T02:46:51.557Z,7.80
2018-12-13T02:51:54.854Z,7.70
2018-12-13T02:56:58.138Z,7.70
2018-12-13T03:02:01.534Z,7.80
2018-12-13T03:07:04.903Z,7.70
2018-12-13T03:12:08.201Z,7.80
2018-12-13T03:17:11.659Z,7.80
2018-12-13T03:22:14.941Z,7.60
2018-12-13T03:27:18.230Z,7.70
2018-12-13T03:32:21.506Z,7.80
2018-12-13T03:37:24.851Z,7.80
2018-12-13T03:42:27.425Z,7.70
2018-12-13T03:47:30.722Z,7.60
2018-12-13T03:52:33.991Z,7.90
2018-12-13T03:57:37.270Z,7.70
2018-12-13T04:02:40.539Z,7.80
2018-12-13T04:07:43.122Z,7.60
2018-12-13T04:12:46.522Z,7.80
2018-12-13T04:17:49.791Z,7.60
2018-12-13T04:22:53.126Z,7.50
2018-12-13T04:27:56.391Z,7.60
2018-12-13T04:32:59.652Z,7.50
2018-12-13T04:38:03.056Z,7.50
2018-12-13T04:43:06.350Z,7.40
2018-12-13T04:48:09.606Z,7.50
2018-12-13T04:53:12.845Z,7.50
2018-12-13T04:58:16.077Z,7.60
2018-12-13T05:03:19.313Z,7.40
2018-12-13T05:08:22.579Z,7.30
2018-12-13T05:13:25.821Z,7.50
2018-12-13T05:18:29.057Z,7.40
2018-12-13T05:23:32.326Z,7.50
2018-12-13T05:28:35.599Z,7.30
2018-12-13T05:33:38.842Z,7.50
2018-12-13T05:38:42.141Z,7.20
2018-12-13T05:43:47.727Z,7.30
2018-12-13T05:48:51.002Z,7.30
2018-12-13T05:53:54.294Z,7.30
2018-12-13T05:58:57.533Z,7.10
2018-12-13T06:04:00.834Z,7.10
2018-12-13T06:09:06.266Z,7.20
2018-12-13T06:14:09.530Z,7.10
2018-12-13T06:19:12.774Z,7.30
2018-12-13T06:24:16.972Z,7.20
2018-12-13T06:29:20.278Z,7.20
2018-12-13T06:34:23.620Z,7.20
2018-12-13T06:39:26.854Z,7.20
2018-12-13T06:44:30.142Z,7.10
2018-12-13T06:49:33.390Z,7.20
2018-12-13T06:54:36.653Z,7.20
2018-12-13T06:59:39.914Z,7.20
2018-12-13T07:04:43.169Z,7.20
2018-12-13T07:09:46.423Z,7.20
2018-12-13T07:14:49.683Z,7.20
2018-12-13T07:19:52.962Z,7.20
2018-12-13T07:24:56.222Z,6.90
2018-12-13T07:29:59.594Z,6.90
2018-12-13T07:35:02.924Z,7.00
2018-12-13T07:40:06.832Z,6.90
2018-12-13T07:45:10.097Z,6.70
2018-12-13T07:50:13.610Z,6.90
2018-12-13T07:55:16.869Z,6.90
2018-12-13T08:00:20.219Z,6.90
2018-12-13T08:10:25.993Z,6.80
2018-12-13T08:15:29.256Z,6.90
2018-12-13T08:20:32.514Z,6.90
2018-12-13T08:25:36.394Z,6.90
2018-12-13T08:30:39.747Z,6.70
2018-12-13T08:35:43.010Z,6.90
2018-12-13T08:40:46.298Z,6.80
2018-12-13T08:45:49.537Z,6.90
2018-12-13T08:50:54.231Z,6.90
2018-12-13T08:55:57.811Z,6.70
2018-12-13T09:01:01.057Z,6.90
2018-12-13T09:06:04.375Z,6.80
2018-12-13T09:11:07.634Z,6.80
2018-12-13T09:16:10.942Z,6.90
2018-12-13T09:21:14.245Z,6.90
2018-12-13T09:26:17.575Z,6.90
2018-12-13T09:31:20.858Z,6.90
2018-12-13T09:36:24.133Z,6.90
2018-12-13T09:41:27.450Z,6.80
2018-12-13T09:46:30.839Z,6.80
2018-12-13T09:51:34.235Z,6.90
2018-12-13T09:56:37.642Z,6.90
2018-12-13T10:01:40.941Z,6.80
2018-12-13T10:06:44.245Z,6.90
2018-12-13T10:11:47.499Z,6.70
2018-12-13T10:21:53.422Z,6.90
2018-12-13T10:26:56.796Z,6.90
2018-12-13T10:32:00.123Z,6.90
2018-12-13T10:37:03.439Z,6.80
2018-12-13T10:42:06.720Z,6.90
2018-12-13T10:47:09.983Z,6.90
2018-12-13T10:52:13.368Z,6.80
2018-12-13T10:57:16.739Z,6.60
2018-12-13T11:02:25.453Z,6.80
2018-12-13T11:07:28.729Z,7.10
2018-12-13T11:12:32.180Z,6.90
2018-12-13T11:17:35.488Z,6.90
2018-12-13T11:22:38.787Z,7.20
2018-12-13T11:28:24.711Z,7.20
2018-12-13T11:33:27.994Z,7.20
2018-12-13T11:38:31.246Z,7.20
2018-12-13T11:43:34.524Z,6.90
2018-12-13T11:48:37.782Z,7.00
2018-12-13T11:53:41.766Z,7.00
2018-12-13T11:58:45.050Z,6.90
2018-12-13T12:03:48.355Z,7.10
2018-12-13T12:08:51.619Z,7.10
2018-12-13T12:13:55.046Z,7.20
2018-12-13T12:18:58.328Z,7.10
2018-12-13T12:24:01.597Z,7.00
2018-12-13T12:29:04.915Z,7.10
2018-12-13T12:34:08.205Z,7.00
2018-12-13T12:39:11.498Z,7.20
2018-12-13T12:44:14.757Z,7.20
2018-12-13T12:49:18.034Z,7.10
2018-12-13T12:54:21.433Z,7.20
2018-12-13T12:59:24.733Z,7.20
2018-12-13T13:04:28.022Z,7.20
2018-12-13T13:09:31.306Z,7.10
2018-12-13T13:14:34.614Z,7.10
2018-12-13T13:19:37.894Z,6.70
2018-12-13T13:24:41.142Z,7.10
2018-12-13T13:29:44.499Z,7.20
2018-12-13T13:34:47.737Z,7.00
2018-12-13T13:39:50.998Z,7.50
2018-12-13T13:44:58.505Z,7.20
2018-12-13T13:50:01.762Z,7.20
2018-12-13T13:55:05.440Z,7.10
2018-12-13T14:00:10.790Z,7.30
2018-12-13T14:05:14.158Z,7.10
2018-12-13T14:10:17.418Z,7.20
2018-12-13T14:15:20.703Z,7.20
2018-12-13T14:20:23.964Z,7.20
2018-12-13T14:25:27.219Z,7.30
2018-12-13T14:30:30.513Z,6.80
2018-12-13T14:35:33.797Z,6.90
2018-12-13T14:40:37.041Z,6.90
2018-12-13T14:45:40.317Z,6.90
2018-12-13T14:50:43.578Z,7.00
2018-12-13T14:55:46.841Z,6.90
2018-12-13T15:00:50.106Z,7.20
2018-12-13T15:05:53.364Z,7.40
2018-12-13T15:10:56.609Z,9.00
2018-12-13T15:15:59.866Z,8.30
2018-12-13T15:21:03.126Z,7.80
2018-12-13T15:26:06.373Z,8.00
2018-12-13T15:31:09.688Z,8.30
2018-12-13T15:36:13.011Z,9.00
2018-12-13T15:41:16.255Z,8.30
2018-12-13T15:46:19.501Z,8.10
2018-12-13T15:51:22.768Z,8.00
2018-12-13T15:56:26.010Z,7.90
2018-12-13T16:06:31.776Z,8.40
2018-12-13T16:11:35.062Z,8.00
2018-12-13T16:16:38.358Z,8.00
2018-12-13T16:21:41.634Z,7.80
2018-12-13T16:26:44.901Z,7.70
2018-12-13T16:31:47.542Z,7.80
2018-12-13T16:36:50.940Z,7.80
2018-12-13T16:41:54.234Z,7.80
2018-12-13T16:46:57.601Z,7.70
2018-12-13T16:52:00.874Z,7.70
2018-12-13T16:57:04.274Z,7.50
2018-12-13T17:02:07.736Z,7.50
2018-12-13T17:07:11.094Z,7.30
2018-12-13T17:12:14.345Z,7.50
2018-12-13T17:17:17.611Z,7.40
2018-12-13T17:22:20.891Z,7.50
2018-12-13T17:27:23.450Z,7.60
2018-12-13T17:32:26.695Z,7.50
2018-12-13T17:37:29.969Z,7.50
2018-12-13T17:42:33.249Z,7.40
2018-12-13T17:47:36.541Z,7.50
2018-12-13T17:52:39.808Z,7.50
2018-12-13T17:57:43.082Z,7.50
2018-12-13T18:02:46.350Z,7.40
2018-12-13T18:07:49.644Z,7.40
2018-12-13T18:12:52.911Z,7.40
2018-12-13T18:17:56.194Z,7.20
2018-12-13T18:22:59.519Z,7.10
2018-12-13T18:28:02.869Z,8.10
2018-12-13T18:33:06.156Z,8.70
2018-12-13T18:38:09.465Z,8.10
2018-12-13T18:43:12.751Z,7.80
2018-12-13T18:48:16.066Z,7.50
2018-12-13T18:53:19.339Z,7.40
2018-12-13T18:58:22.686Z,7.30
2018-12-13T19:03:26.051Z,7.50
2018-12-13T19:08:29.443Z,7.50
2018-12-13T19:13:33.193Z,7.50
2018-12-13T19:18:36.890Z,7.60
2018-12-13T19:23:40.399Z,7.50
2018-12-13T19:28:44.040Z,7.50
2018-12-13T19:33:49.124Z,7.10
2018-12-13T19:38:52.413Z,7.20
2018-12-13T19:43:55.703Z,7.20
2018-12-13T19:48:58.982Z,7.20
2018-12-13T19:54:02.269Z,7.10
2018-12-13T19:59:05.627Z,7.10
2018-12-13T20:04:08.999Z,7.00
2018-12-13T20:09:12.295Z,7.30
2018-12-13T20:14:15.616Z,7.20
2018-12-13T20:19:18.919Z,7.20
2018-12-13T20:24:22.236Z,7.20
2018-12-13T20:29:25.747Z,7.20
2018-12-13T20:34:29.017Z,7.10
2018-12-13T20:39:32.318Z,7.20
2018-12-13T20:44:35.608Z,7.10
2018-12-13T20:49:38.887Z,7.10
2018-12-13T20:54:42.179Z,7.20
2018-12-13T20:59:45.480Z,7.10
2018-12-13T21:04:48.755Z,7.20
2018-12-13T21:09:52.055Z,7.20
2018-12-13T21:14:55.356Z,7.20
2018-12-13T21:19:58.638Z,7.20
2018-12-13T21:25:01.934Z,6.90
2018-12-13T21:30:06.235Z,6.90
2018-12-13T21:35:09.747Z,7.00
2018-12-13T21:40:13.059Z,6.80
2018-12-13T21:45:16.335Z,6.90
2018-12-13T21:50:19.707Z,7.00
2018-12-13T21:55:22.979Z,7.20
2018-12-13T22:00:26.266Z,6.70
2018-12-13T22:05:29.535Z,6.70
2018-12-13T22:10:32.916Z,6.90
2018-12-13T22:15:35.726Z,6.70
2018-12-13T22:20:38.967Z,6.90
2018-12-13T22:25:42.234Z,7.20
2018-12-13T22:30:45.484Z,6.70
2018-12-13T22:35:48.783Z,6.90
2018-12-13T22:40:52.177Z,6.70
2018-12-13T22:45:55.479Z,7.00
2018-12-13T22:50:58.745Z,6.90
2018-12-13T22:56:02.078Z,6.60
2018-12-13T23:01:05.596Z,6.80
2018-12-13T23:06:08.411Z,6.90
2018-12-13T23:11:12.258Z,6.90
2018-12-13T23:16:15.501Z,6.90
2018-12-13T23:21:18.745Z,7.00
2018-12-13T23:26:21.982Z,6.80
2018-12-13T23:31:25.244Z,6.90
2018-12-13T23:36:28.518Z,6.90
2018-12-13T23:41:31.293Z,6.90
2018-12-13T23:51:37.066Z,6.90
2018-12-13T23:56:40.913Z,6.70
